createdAt,value
2022-09-23T00:02:07.518Z,100735.02
2022-09-23T00:07:10.558Z,100735.07
2022-09-23T00:12:13.355Z,100732.25
2022-09-23T00:17:16.261Z,100727.34
2022-09-23T00:22:19.162Z,100720.85
2022-09-23T00:27:22.066Z,100719.42
2022-09-23T00:32:25.116Z,100717.95
2022-09-23T00:37:28.948Z,100720.92
2022-09-23T00:42:32.008Z,100713.86
2022-09-23T00:47:54.982Z,100713.55
2022-09-23T00:53:01.336Z,100713.00
2022-09-23T00:58:08.106Z,100717.05
2022-09-23T01:03:12.128Z,100712.20
2022-09-23T01:08:15.960Z,100710.89
2022-09-23T01:13:27.013Z,100705.86
2022-09-23T01:18:57.430Z,100703.89
2022-09-23T01:24:18.593Z,100698.98
2022-09-23T01:30:03.445Z,100696.45
2022-09-23T01:35:15.403Z,100694.76
2022-09-23T01:40:42.868Z,100695.31
2022-09-23T01:45:48.877Z,100697.10
2022-09-23T01:50:57.758Z,100699.02
2022-09-23T01:56:05.515Z,100691.55
2022-09-23T02:01:10.215Z,100694.16
2022-09-23T02:06:23.099Z,100695.55
2022-09-23T02:11:26.991Z,100696.08
2022-09-23T02:16:51.966Z,100696.02
2022-09-23T02:22:09.245Z,100697.89
2022-09-23T02:27:31.552Z,100694.77
2022-09-23T02:33:07.221Z,100692.66
2022-09-23T02:38:31.735Z,100689.36
2022-09-23T02:43:45.389Z,100688.80
2022-09-23T02:48:56.995Z,100691.02
2022-09-23T02:54:00.187Z,100688.06
2022-09-23T02:59:04.301Z,100684.03
2022-09-23T03:04:21.688Z,100679.63
2022-09-23T03:09:33.802Z,100674.02
2022-09-23T03:14:51.040Z,100674.82
2022-09-23T03:19:53.843Z,100678.23
2022-09-23T03:25:03.813Z,100672.27
2022-09-23T03:30:08.464Z,100670.36
2022-09-23T03:40:41.999Z,100667.59
2022-09-23T03:45:46.849Z,100667.93
2022-09-23T03:50:49.873Z,100665.16
2022-09-23T03:55:52.676Z,100671.06
2022-09-23T04:00:55.704Z,100671.11
2022-09-23T04:05:58.595Z,100660.54
2022-09-23T04:11:02.458Z,100660.09
2022-09-23T04:16:05.989Z,100661.37
2022-09-23T04:21:09.141Z,100656.27
2022-09-23T04:26:12.862Z,100658.88
2022-09-23T04:31:16.140Z,100660.16
2022-09-23T04:36:19.590Z,100659.52
2022-09-23T04:41:22.495Z,100651.27
2022-09-23T04:46:25.568Z,100647.15
2022-09-23T04:51:29.026Z,100642.99
2022-09-23T04:56:32.948Z,100642.83
2022-09-23T05:01:36.672Z,100637.46
2022-09-23T05:06:40.188Z,100638.95
2022-09-23T05:11:44.029Z,100644.05
2022-09-23T05:16:46.917Z,100641.25
2022-09-23T05:21:49.822Z,100647.05
2022-09-23T05:26:54.394Z,100643.17
2022-09-23T05:31:57.336Z,100644.11
2022-09-23T05:37:03.704Z,100646.92
2022-09-23T05:42:07.116Z,100650.77
2022-09-23T05:47:10.029Z,100655.64
2022-09-23T05:52:13.002Z,100659.11
2022-09-23T05:57:16.311Z,100657.00
2022-09-23T06:02:19.239Z,100656.69
2022-09-23T06:07:22.311Z,100659.23
2022-09-23T06:12:25.311Z,100661.27
2022-09-23T06:17:28.119Z,100655.52
2022-09-23T06:22:31.105Z,100647.20
2022-09-23T06:27:34.023Z,100649.32
2022-09-23T06:32:37.031Z,100649.87
2022-09-23T06:37:43.210Z,100655.64
2022-09-23T06:42:49.033Z,100659.32
2022-09-23T06:48:06.331Z,100657.30
2022-09-23T06:53:09.347Z,100645.41
2022-09-23T06:58:12.444Z,100645.61
2022-09-23T07:03:15.341Z,100647.67
2022-09-23T07:08:18.760Z,100650.56
2022-09-23T07:13:21.831Z,100645.67
2022-09-23T07:18:26.205Z,100646.59
2022-09-23T07:23:29.210Z,100646.96
2022-09-23T07:28:32.629Z,100647.63
2022-09-23T07:33:42.931Z,100643.06
2022-09-23T07:38:47.456Z,100636.31
2022-09-23T07:43:55.677Z,100635.60
2022-09-23T07:48:59.389Z,100637.03
2022-09-23T07:54:02.410Z,100636.43
2022-09-23T07:59:09.005Z,100624.88
2022-09-23T08:04:14.049Z,100631.65
2022-09-23T08:09:22.148Z,100626.77
2022-09-23T08:14:25.391Z,100625.20
2022-09-23T08:19:28.291Z,100626.27
2022-09-23T08:24:32.421Z,100619.62
2022-09-23T08:29:35.222Z,100617.71
2022-09-23T08:34:38.024Z,100621.73
2022-09-23T08:39:40.826Z,100622.35
2022-09-23T08:44:49.575Z,100621.23
2022-09-23T08:50:08.406Z,100616.56
2022-09-23T08:55:15.955Z,100617.10
2022-09-23T09:00:23.639Z,100616.27
2022-09-23T09:05:28.625Z,100615.79
2022-09-23T09:10:41.878Z,100613.73
2022-09-23T09:15:56.384Z,100611.12
2022-09-23T09:21:16.096Z,100606.11
2022-09-23T09:26:28.458Z,100600.14
2022-09-23T09:31:38.033Z,100583.54
2022-09-23T09:37:06.731Z,100573.46
2022-09-23T09:42:21.028Z,100577.52
2022-09-23T09:47:46.718Z,100581.99
2022-09-23T09:52:49.704Z,100581.53
2022-09-23T09:58:02.013Z,100585.61
2022-09-23T10:03:18.349Z,100585.99
2022-09-23T10:08:37.321Z,100583.79
2022-09-23T10:13:40.236Z,100576.95
2022-09-23T10:18:46.199Z,100571.63
2022-09-23T10:23:52.746Z,100563.84
2022-09-23T10:28:55.818Z,100555.73
2022-09-23T10:34:28.086Z,100550.77
2022-09-23T10:39:49.942Z,100550.88
2022-09-23T10:45:26.232Z,100548.56
2022-09-23T10:50:46.238Z,100550.23
2022-09-23T10:56:06.562Z,100547.96
2022-09-23T11:01:13.619Z,100545.39
2022-09-23T11:06:35.612Z,100547.52
2022-09-23T11:11:47.326Z,100545.39
2022-09-23T11:17:02.242Z,100544.66
2022-09-23T11:22:16.076Z,100541.31
2022-09-23T11:27:27.786Z,100540.41
2022-09-23T11:32:44.824Z,100529.66
2022-09-23T11:37:52.847Z,100523.69
2022-09-23T11:43:26.063Z,100520.05
2022-09-23T11:48:42.281Z,100524.52
2022-09-23T11:53:57.886Z,100525.66
2022-09-23T11:59:06.660Z,100528.77
2022-09-23T12:04:23.446Z,100533.66
2022-09-23T12:15:19.647Z,100522.94
2022-09-23T12:20:42.527Z,100524.19
2022-09-23T12:25:57.306Z,100517.24
2022-09-23T12:31:04.025Z,100512.73
2022-09-23T12:36:12.352Z,100506.24
2022-09-23T12:41:27.837Z,100505.77
2022-09-23T12:46:30.741Z,100503.09
2022-09-23T12:51:37.423Z,100507.65
2022-09-23T12:56:40.228Z,100501.39
2022-09-23T13:01:44.567Z,100504.56
2022-09-23T13:07:09.563Z,100500.77
2022-09-23T13:12:40.451Z,100495.05
2022-09-23T13:17:43.350Z,100488.73
2022-09-23T13:22:49.027Z,100489.01
2022-09-23T13:27:55.508Z,100484.50
2022-09-23T13:33:24.632Z,100478.52
2022-09-23T13:38:32.253Z,100469.48
2022-09-23T13:43:41.342Z,100470.77
2022-09-23T13:48:46.863Z,100470.70
2022-09-23T13:53:55.367Z,100469.17
2022-09-23T13:59:26.372Z,100460.06
2022-09-23T14:04:29.268Z,100459.00
2022-09-23T14:09:35.447Z,100451.39
2022-09-23T14:14:41.083Z,100448.41
2022-09-23T14:19:44.512Z,100437.56
2022-09-23T14:24:49.548Z,100430.07
2022-09-23T14:29:54.040Z,100416.79
2022-09-23T14:34:59.602Z,100415.92
2022-09-23T14:40:04.149Z,100417.52
2022-09-23T14:45:10.116Z,100411.80
2022-09-23T14:50:36.997Z,100409.67
2022-09-23T14:55:41.735Z,100411.10
2022-09-23T15:00:55.918Z,100401.91
2022-09-23T15:06:08.750Z,100404.63
2022-09-23T15:11:12.359Z,100403.21
2022-09-23T15:16:26.663Z,100400.73
2022-09-23T15:21:42.350Z,100395.77
2022-09-23T15:26:48.912Z,100394.14
2022-09-23T15:31:52.075Z,100393.34
2022-09-23T15:36:55.148Z,100389.64
2022-09-23T15:41:58.870Z,100383.42
2022-09-23T15:47:02.391Z,100381.94
2022-09-23T15:52:07.981Z,100374.77
2022-09-23T15:57:11.376Z,100377.46
2022-09-23T16:02:22.667Z,100373.30
2022-09-23T16:07:28.453Z,100372.05
2022-09-23T16:12:31.449Z,100375.20
2022-09-23T16:17:37.780Z,100377.55
2022-09-23T16:22:40.740Z,100376.66
2022-09-23T16:27:43.645Z,100374.80
2022-09-23T16:32:46.548Z,100377.84
2022-09-23T16:37:51.186Z,100375.14
2022-09-23T16:42:56.040Z,100377.12
2022-09-23T16:47:59.663Z,100377.26
2022-09-23T16:53:02.570Z,100375.30
2022-09-23T16:58:05.471Z,100373.63
2022-09-23T17:03:29.881Z,100368.40
2022-09-23T17:08:33.383Z,100366.98
2022-09-23T17:13:41.226Z,100368.23
2022-09-23T17:18:44.222Z,100360.77
2022-09-23T17:23:47.143Z,100353.70
2022-09-23T17:28:51.876Z,100353.86
2022-09-23T17:33:55.294Z,100358.17
2022-09-23T17:38:58.197Z,100358.90
2022-09-23T17:44:01.328Z,100360.98
2022-09-23T17:49:05.727Z,100361.77
2022-09-23T17:54:09.165Z,100357.56
2022-09-23T17:59:14.523Z,100365.81
2022-09-23T18:04:17.637Z,100362.05
2022-09-23T18:09:20.740Z,100362.61
2022-09-23T18:14:24.276Z,100365.10
2022-09-23T18:19:27.468Z,100362.27
2022-09-23T18:24:33.611Z,100361.09
2022-09-23T18:29:38.218Z,100361.47
2022-09-23T18:34:41.305Z,100364.99
2022-09-23T18:39:44.666Z,100364.05
2022-09-23T18:44:50.089Z,100364.10
2022-09-23T18:50:12.444Z,100362.90
2022-09-23T18:55:15.658Z,100367.15
2022-09-23T19:00:19.602Z,100359.98
2022-09-23T19:05:22.587Z,100364.49
2022-09-23T19:10:25.701Z,100359.37
2022-09-23T19:15:28.813Z,100361.27
2022-09-23T19:20:31.811Z,100364.56
2022-09-23T19:25:36.357Z,100369.73
2022-09-23T19:30:39.570Z,100371.94
2022-09-23T19:35:48.731Z,100370.35
2022-09-23T19:40:52.270Z,100377.27
2022-09-23T19:45:55.857Z,100380.09
2022-09-23T19:50:58.864Z,100377.92
2022-09-23T19:56:05.058Z,100374.95
2022-09-23T20:01:08.352Z,100375.56
2022-09-23T20:06:11.773Z,100368.66
2022-09-23T20:11:23.647Z,100362.34
2022-09-23T20:16:33.717Z,100352.04
2022-09-23T20:21:36.764Z,100342.96
2022-09-23T20:26:58.510Z,100342.10
2022-09-23T20:32:01.779Z,100344.13
2022-09-23T20:37:06.230Z,100344.14
2022-09-23T20:42:10.344Z,100345.52
2022-09-23T20:47:14.959Z,100344.00
2022-09-23T20:52:20.513Z,100343.47
2022-09-23T20:57:23.408Z,100343.65
2022-09-23T21:02:27.467Z,100344.65
2022-09-23T21:07:32.291Z,100343.52
2022-09-23T21:12:35.499Z,100346.30
2022-09-23T21:17:38.426Z,100345.83
2022-09-23T21:22:41.420Z,100349.78
2022-09-23T21:27:45.235Z,100351.68
2022-09-23T21:32:48.038Z,100348.41
2022-09-23T21:37:50.838Z,100348.59
2022-09-23T21:42:53.638Z,100344.32
2022-09-23T21:47:56.542Z,100344.41
2022-09-23T21:53:00.987Z,100345.89
2022-09-23T21:58:04.707Z,100340.23
2022-09-23T22:03:07.715Z,100344.10
2022-09-23T22:08:10.823Z,100343.53
2022-09-23T22:13:13.623Z,100340.63
2022-09-23T22:18:19.495Z,100339.92
2022-09-23T22:23:22.399Z,100342.08
2022-09-23T22:28:43.735Z,100343.73
2022-09-23T22:33:50.558Z,100346.30
2022-09-23T22:38:59.184Z,100343.60
2022-09-23T22:44:03.816Z,100342.14
2022-09-23T22:49:09.389Z,100334.59
2022-09-23T22:54:12.502Z,100334.12
2022-09-23T22:59:15.404Z,100331.86
2022-09-23T23:04:18.264Z,100326.59
2022-09-23T23:09:21.098Z,100323.94
2022-09-23T23:14:24.575Z,100322.31
2022-09-23T23:19:27.521Z,100318.61
2022-09-23T23:24:30.322Z,100319.06
2022-09-23T23:29:33.226Z,100319.41
2022-09-23T23:34:36.014Z,100318.57
2022-09-23T23:39:38.809Z,100313.57
2022-09-23T23:44:41.732Z,100314.55
2022-09-23T23:49:44.582Z,100305.66
2022-09-23T23:54:47.544Z,100312.27
2022-09-23T23:59:50.446Z,100305.42
